Monday, January 26, 2015
04:21 UTC
  |  Log In   |  Register Free
Airport Search:

Bishop International Airport
(KFNT)

FAA data valid effective January 08, 2015 - March 05, 2015 (unless otherwise noted).

 
 
 
 
 
 
 
 
 
 
 
 
 
 

Current Aviation Weather for Bishop International Airport (KFNT)

The most recent METAR observation for KFNT was updated at: 0409
METAR Summary (Translated METAR)
KFNT
260353Z 03009KT 10SM CLR M08/M13 A3000 RMK AO2 SLP173 T10831128
KRNP
260354Z AUTO 03005KT 10SM CLR M09/M12 A3001 RMK AO2 T10871120
(17.4 nm NW from KFNT)
KD95
260353Z AUTO 04003KT 10SM SCT020 M10/M12 A3000 RMK AO2 T11051120
(21.6 nm NE from KFNT)
TAF Summary (Translated TAF)
KFNT
251906Z 2519/2618 06010KT P6SM SCT025 FM260900 05007KT P6SM SCT025 BKN150
  Airport Weather Conditions for KFNT

 Current Weather at FNT
17° F
Fair
Northeast winds at 10.4 mph
FNT NOAA Radar

Pressure: 30.00 in
Humidity: 70%
Wind: Northeast at 10.4 MPH (9 KT)
Dew Point: 9.0°F
Visibility: 10.00 mi


Airport Weather Forecast for KFNT

Translated METAR and TAF for KFNT
Translated METAR for KFNT (0421 UTC 26 January 2015)
found at http://aviationweather.gov/adds/metars/
 
METAR text: KFNT 260353Z 03009KT 10SM CLR M08/M13 A3000 RMK AO2 SLP173 T10831128
Conditions at: KFNT (FLINT , MI, US) observed 0353 UTC 26 January 2015
Temperature: -8.3°C (17°F)
Dewpoint: -12.8°C (9°F) [RH = 70%]
Pressure (altimeter): 30.00 inches Hg (1016.0 mb)
[Sea-level pressure: 1017.3 mb]
Winds: from the NNE (30 degrees) at 10 MPH (9 knots; 4.7 m/s)
Visibility: 10 or more miles (16+ km)
Ceiling: at least 12,000 feet AGL
Clouds: sky clear below 12,000 feet AGL
Weather: no significant weather observed at this time
Translated TAF for KFNT
Forecast for: KFNT (FLINT , MI, US)
TAF Text: KFNT 252330Z 2600/2624 04012KT P6SM BKN150
Forecast period: 0000 to 0600 UTC 26 January 2015
Forecast type: FROM: standard forecast or significant change
Winds: from the NE (40 degrees) at 14 MPH (12 knots; 6.2 m/s)
Visibility: 6 or more miles (10+ km)
Ceiling: 15000 feet AGL
Clouds: broken clouds at 15000 feet AGL
Weather: no significant weather forecast for this period
TAF Text: FM260600 04007KT P6SM BKN150
Forecast period: 0600 UTC 26 January 2015 to 0000 UTC 27 January 2015
Forecast type: FROM: standard forecast or significant change
Winds: from the NE (40 degrees) at 8 MPH (7 knots; 3.6 m/s)
Visibility: 6 or more miles (10+ km)
Ceiling: 15000 feet AGL
Clouds: broken clouds at 15000 feet AGL
Weather: no significant weather forecast for this period

Find All Airport Services Find A Hotel Find A Rental Car Find A Golf Course Find A Restaurant $100 Hamburger



FBO's on the Field
FBO Company Facility Photos Services Transportation Aviation Fuel Prices: Prices include tax
Catering Weather Repair Courtesy Rental Type 100LL JetA JetA+ MOGAS 8087
 
Avflight Flint

This FBO has not yet been rated
FS:Avfuel
Last Updated: Jan-19
Login to update fuel prices
SS:
Contact Avflight FlintMore FBO Information
 
Add another FBO Facility Photos Catering Weather Repair Courtesy Rental Type 100LL JetA JetA+ MOGAS 8087
Services Transportation Aviation Fuel Prices: Prices include tax


model-print
model-print
model-print
model-print